createdAt,value
2019-06-25T00:02:18.099Z,95255.60
2019-06-25T00:04:47.640Z,95259.03
2019-06-25T00:07:17.167Z,95257.51
2019-06-25T00:09:46.684Z,95252.41
2019-06-25T00:12:16.165Z,95246.52
2019-06-25T00:14:45.711Z,95249.31
2019-06-25T00:17:15.229Z,95244.78
2019-06-25T00:19:44.691Z,95247.09
2019-06-25T00:22:14.166Z,95251.74
2019-06-25T00:24:43.642Z,95252.43
2019-06-25T00:27:13.092Z,95253.36
2019-06-25T00:29:55.543Z,95252.98
2019-06-25T00:32:15.534Z,95246.64
2019-06-25T00:34:45.001Z,95246.41
2019-06-25T00:37:14.474Z,95242.95
2019-06-25T00:39:43.949Z,95248.80
2019-06-25T00:42:13.429Z,95249.90
2019-06-25T00:44:42.942Z,95251.45
2019-06-25T00:47:12.389Z,95259.27
2019-06-25T00:49:41.848Z,95255.52
2019-06-25T00:52:11.293Z,95256.50
2019-06-25T00:54:40.851Z,95256.97
2019-06-25T00:57:10.337Z,95253.13
2019-06-25T00:59:39.798Z,95249.75
2019-06-25T01:02:28.230Z,95242.54
2019-06-25T01:04:57.695Z,95242.63
2019-06-25T01:07:27.184Z,95249.61
2019-06-25T01:09:56.637Z,95250.47
2019-06-25T01:12:26.132Z,95246.00
2019-06-25T01:14:55.628Z,95237.23
2019-06-25T01:17:25.070Z,95237.06
2019-06-25T01:19:54.548Z,95244.27
2019-06-25T01:22:24.024Z,95242.66
2019-06-25T01:24:53.494Z,95241.19
2019-06-25T01:27:23.001Z,95247.07
2019-06-25T01:29:52.521Z,95246.78
2019-06-25T01:32:21.961Z,95238.88
2019-06-25T01:34:51.415Z,95245.30
2019-06-25T01:37:20.905Z,95247.67
2019-06-25T01:39:50.389Z,95261.81
2019-06-25T01:42:19.909Z,95256.94
2019-06-25T01:44:49.384Z,95263.60
2019-06-25T01:47:18.867Z,95253.73
2019-06-25T01:49:48.378Z,95252.47
2019-06-25T01:52:17.886Z,95255.44
2019-06-25T01:54:47.340Z,95251.00
2019-06-25T01:57:16.893Z,95254.45
2019-06-25T01:59:46.412Z,95254.25
2019-06-25T02:02:15.898Z,95251.66
2019-06-25T02:04:48.237Z,95244.82
2019-06-25T02:07:16.568Z,95248.05
2019-06-25T02:09:46.028Z,95251.57
2019-06-25T02:12:15.494Z,95232.64
2019-06-25T02:14:44.997Z,95228.72
2019-06-25T02:17:14.509Z,95232.42
2019-06-25T02:19:43.981Z,95228.98
2019-06-25T02:22:13.454Z,95233.77
2019-06-25T02:24:42.936Z,95225.58
2019-06-25T02:27:12.414Z,95222.23
2019-06-25T02:29:41.884Z,95222.17
2019-06-25T02:32:11.351Z,95223.59
2019-06-25T02:34:40.810Z,95225.03
2019-06-25T02:37:10.318Z,95213.89
2019-06-25T02:39:39.766Z,95215.16
2019-06-25T02:42:09.291Z,95224.77
2019-06-25T02:44:38.802Z,95228.00
2019-06-25T02:47:08.293Z,95234.87
2019-06-25T02:49:37.740Z,95239.86
2019-06-25T02:52:07.216Z,95244.59
2019-06-25T02:54:36.689Z,95249.38
2019-06-25T02:57:06.140Z,95244.59
2019-06-25T02:59:35.693Z,95246.61
2019-06-25T03:02:05.143Z,95250.15
2019-06-25T03:04:34.595Z,95253.44
2019-06-25T03:07:04.104Z,95253.03
2019-06-25T03:09:33.835Z,95264.45
2019-06-25T03:12:03.282Z,95270.61
2019-06-25T03:14:32.747Z,95269.96
2019-06-25T03:17:02.248Z,95270.61
2019-06-25T03:19:31.693Z,95268.05
2019-06-25T03:22:01.288Z,95276.43
2019-06-25T03:24:30.790Z,95275.84
2019-06-25T03:27:00.249Z,95279.10
2019-06-25T03:29:33.622Z,95283.17
2019-06-25T03:32:08.347Z,95289.30
2019-06-25T03:34:32.078Z,95291.47
2019-06-25T03:37:01.616Z,95293.30
2019-06-25T03:39:31.078Z,95299.94
2019-06-25T03:42:00.607Z,95301.58
2019-06-25T03:44:30.071Z,95296.38
2019-06-25T03:46:59.580Z,95292.89
2019-06-25T03:49:29.037Z,95288.34
2019-06-25T03:51:58.502Z,95287.01
2019-06-25T03:54:28.019Z,95279.34
2019-06-25T03:56:57.469Z,95275.00
2019-06-25T03:59:26.944Z,95273.72
2019-06-25T04:01:56.650Z,95274.41
2019-06-25T04:04:26.142Z,95259.28
2019-06-25T04:06:55.657Z,95262.39
2019-06-25T04:09:25.127Z,95267.66
2019-06-25T04:11:54.601Z,95263.04
2019-06-25T04:14:24.077Z,95269.52
2019-06-25T04:16:53.551Z,95270.19
2019-06-25T04:19:23.034Z,95270.53
2019-06-25T04:21:52.494Z,95277.84
2019-06-25T04:24:21.998Z,95274.78
2019-06-25T04:26:51.441Z,95279.05
2019-06-25T04:29:20.949Z,95282.84
2019-06-25T04:31:50.460Z,95283.67
2019-06-25T04:34:19.998Z,95283.28
2019-06-25T04:36:49.499Z,95293.38
2019-06-25T04:39:18.984Z,95289.14
2019-06-25T04:41:48.486Z,95292.58
2019-06-25T04:44:17.952Z,95287.39
2019-06-25T04:46:47.457Z,95290.42
2019-06-25T04:49:16.907Z,95297.27
2019-06-25T04:51:46.383Z,95291.55
2019-06-25T04:54:15.895Z,95288.94
2019-06-25T04:56:45.437Z,95280.88
2019-06-25T04:59:14.904Z,95285.92
2019-06-25T05:01:44.335Z,95279.12
2019-06-25T05:04:13.812Z,95278.81
2019-06-25T05:06:43.303Z,95282.82
2019-06-25T05:09:12.861Z,95288.77
2019-06-25T05:11:42.424Z,95292.14
2019-06-25T05:14:12.221Z,95289.63
2019-06-25T05:16:42.007Z,95302.17
2019-06-25T05:19:11.610Z,95306.39
2019-06-25T05:21:41.945Z,95302.28
2019-06-25T05:24:11.453Z,95306.83
2019-06-25T05:26:40.990Z,95311.25
2019-06-25T05:29:10.466Z,95311.57
2019-06-25T05:31:40.250Z,95315.67
2019-06-25T05:34:09.728Z,95314.23
2019-06-25T05:37:04.024Z,95322.03
2019-06-25T05:39:33.470Z,95327.97
2019-06-25T05:42:02.917Z,95329.56
2019-06-25T05:44:32.389Z,95329.56
2019-06-25T05:47:03.491Z,95333.55
2019-06-25T05:49:33.033Z,95336.77
2019-06-25T05:52:02.537Z,95335.53
2019-06-25T05:54:31.994Z,95334.19
2019-06-25T05:57:01.475Z,95322.39
2019-06-25T05:59:30.977Z,95334.66
2019-06-25T06:02:00.450Z,95335.72
2019-06-25T06:04:29.949Z,95336.55
2019-06-25T06:06:59.421Z,95345.81
2019-06-25T06:09:28.899Z,95339.81
2019-06-25T06:12:00.908Z,95341.11
2019-06-25T06:14:30.518Z,95345.72
2019-06-25T06:16:59.992Z,95344.48
2019-06-25T06:19:30.264Z,95342.73
2019-06-25T06:21:59.833Z,95344.94
2019-06-25T06:24:29.612Z,95352.45
2019-06-25T06:26:59.054Z,95353.11
2019-06-25T06:29:28.552Z,95356.05
2019-06-25T06:31:58.435Z,95357.44
2019-06-25T06:34:28.192Z,95356.09
2019-06-25T06:36:57.635Z,95355.33
2019-06-25T06:39:27.178Z,95356.70
2019-06-25T06:41:56.657Z,95354.55
2019-06-25T06:44:26.239Z,95349.73
2019-06-25T06:46:55.847Z,95350.83
2019-06-25T06:49:25.324Z,95351.09
2019-06-25T06:51:54.785Z,95346.86
2019-06-25T06:54:24.227Z,95350.88
2019-06-25T06:56:53.873Z,95344.13
2019-06-25T06:59:23.574Z,95350.83
2019-06-25T07:01:53.138Z,95348.98
2019-06-25T07:04:22.631Z,95357.83
2019-06-25T07:06:52.126Z,95353.03
2019-06-25T07:09:22.035Z,95362.16
2019-06-25T07:11:51.599Z,95358.39
2019-06-25T07:14:21.075Z,95359.72
2019-06-25T07:16:50.561Z,95360.00
2019-06-25T07:19:20.280Z,95360.80
2019-06-25T07:21:50.134Z,95366.16
2019-06-25T07:24:19.644Z,95364.81
2019-06-25T07:26:49.132Z,95371.54
2019-06-25T07:29:18.839Z,95369.39
2019-06-25T07:31:48.451Z,95361.88
2019-06-25T07:34:18.161Z,95364.03
2019-06-25T07:36:47.939Z,95369.13
2019-06-25T07:39:17.446Z,95365.39
2019-06-25T07:41:46.962Z,95369.91
2019-06-25T07:44:16.454Z,95365.11
2019-06-25T07:46:46.003Z,95368.84
2019-06-25T07:49:15.575Z,95369.64
2019-06-25T07:51:45.047Z,95365.91
2019-06-25T07:54:14.803Z,95366.95
2019-06-25T07:56:44.420Z,95369.13
2019-06-25T07:59:14.183Z,95375.00
2019-06-25T08:01:44.803Z,95375.03
2019-06-25T08:04:24.872Z,95376.61
2019-06-25T08:06:45.861Z,95373.13
2019-06-25T08:09:15.412Z,95370.43
2019-06-25T08:11:44.920Z,95369.38
2019-06-25T08:14:14.417Z,95372.86
2019-06-25T08:16:43.904Z,95367.78
2019-06-25T08:19:13.751Z,95374.73
2019-06-25T08:21:43.686Z,95368.84
2019-06-25T08:24:13.763Z,95371.78
2019-06-25T08:26:43.473Z,95363.99
2019-06-25T08:29:12.973Z,95364.02
2019-06-25T08:31:42.549Z,95362.41
2019-06-25T08:34:12.243Z,95365.06
2019-06-25T08:36:41.707Z,95368.55
2019-06-25T08:39:11.212Z,95366.67
2019-06-25T08:41:40.735Z,95366.59
2019-06-25T08:44:10.326Z,95371.95
2019-06-25T08:46:40.025Z,95363.91
2019-06-25T08:49:09.543Z,95364.38
2019-06-25T08:51:39.048Z,95366.46
2019-06-25T08:54:08.646Z,95370.76
2019-06-25T08:56:38.169Z,95368.83
2019-06-25T08:59:07.638Z,95369.57
2019-06-25T09:01:37.129Z,95367.27
2019-06-25T09:04:06.729Z,95368.67
2019-06-25T09:06:36.167Z,95370.29
2019-06-25T09:09:07.464Z,95369.27
2019-06-25T09:11:37.061Z,95367.97
2019-06-25T09:14:07.008Z,95374.36
2019-06-25T09:16:36.559Z,95365.19
2019-06-25T09:19:06.174Z,95370.99
2019-06-25T09:21:35.759Z,95365.72
2019-06-25T09:24:05.234Z,95369.16
2019-06-25T09:26:34.747Z,95370.49
2019-06-25T09:29:04.338Z,95372.24
2019-06-25T09:31:33.920Z,95364.45
2019-06-25T09:34:03.411Z,95368.93
2019-06-25T09:36:32.894Z,95370.20
2019-06-25T09:39:02.780Z,95369.66
2019-06-25T09:41:30.487Z,95363.97
2019-06-25T09:44:00.582Z,95367.53
2019-06-25T09:46:29.850Z,95368.21
2019-06-25T09:48:59.708Z,95363.86
2019-06-25T09:51:29.356Z,95359.67
2019-06-25T09:53:58.940Z,95355.45
2019-06-25T09:56:30.344Z,95358.27
2019-06-25T09:59:00.235Z,95352.78
2019-06-25T10:01:44.215Z,95352.04
2019-06-25T10:04:00.925Z,95357.00
2019-06-25T10:06:30.392Z,95355.62
2019-06-25T10:08:59.905Z,95360.45
2019-06-25T10:11:29.428Z,95364.48
2019-06-25T10:13:58.964Z,95361.36
2019-06-25T10:16:28.407Z,95352.72
2019-06-25T10:18:57.881Z,95356.41
2019-06-25T10:21:27.492Z,95357.16
2019-06-25T10:23:57.016Z,95364.20
2019-06-25T10:26:26.638Z,95371.23
2019-06-25T10:28:56.299Z,95368.44
2019-06-25T10:31:25.753Z,95362.94
2019-06-25T10:33:55.257Z,95365.39
2019-06-25T10:36:24.769Z,95365.31
2019-06-25T10:38:54.292Z,95364.12
2019-06-25T10:41:26.004Z,95364.03
2019-06-25T10:43:57.581Z,95360.23
2019-06-25T10:46:27.128Z,95370.30
2019-06-25T10:48:56.636Z,95373.80
2019-06-25T10:51:26.525Z,95362.18
2019-06-25T10:53:56.054Z,95366.87
2019-06-25T10:56:27.588Z,95361.61
2019-06-25T10:58:56.824Z,95351.14
2019-06-25T11:01:26.332Z,95359.73
2019-06-25T11:03:55.810Z,95356.79
2019-06-25T11:06:25.393Z,95362.08
2019-06-25T11:08:54.873Z,95361.07
2019-06-25T11:11:24.348Z,95359.97
2019-06-25T11:14:07.314Z,95361.55
2019-06-25T11:16:25.013Z,95358.81
2019-06-25T11:18:54.479Z,95354.58
2019-06-25T11:21:24.005Z,95351.55
2019-06-25T11:23:53.505Z,95349.42
2019-06-25T11:26:24.215Z,95350.75
2019-06-25T11:28:53.745Z,95364.76
2019-06-25T11:31:23.296Z,95360.16
2019-06-25T11:33:52.742Z,95353.67
2019-06-25T11:36:22.403Z,95357.67
2019-06-25T11:38:51.941Z,95363.06
2019-06-25T11:41:21.402Z,95355.20
2019-06-25T11:43:50.985Z,95359.20
2019-06-25T11:46:20.668Z,95360.11
2019-06-25T11:48:50.239Z,95351.25
2019-06-25T11:51:19.908Z,95355.95
2019-06-25T11:53:49.424Z,95351.36
2019-06-25T11:56:18.954Z,95365.00
2019-06-25T11:58:48.518Z,95362.66
2019-06-25T12:01:18.369Z,95347.52
2019-06-25T12:03:47.852Z,95352.81
2019-06-25T12:06:32.513Z,95360.84
2019-06-25T12:08:48.623Z,95349.60
2019-06-25T12:11:18.108Z,95355.92
2019-06-25T12:13:47.602Z,95364.91
2019-06-25T12:16:17.210Z,95359.08
2019-06-25T12:18:46.690Z,95357.08
2019-06-25T12:21:16.179Z,95344.53
2019-06-25T12:23:45.714Z,95340.67
2019-06-25T12:26:15.257Z,95332.00
2019-06-25T12:28:44.751Z,95327.72
2019-06-25T12:31:14.301Z,95323.28
2019-06-25T12:33:43.770Z,95309.78
2019-06-25T12:36:13.226Z,95307.16
2019-06-25T12:38:42.714Z,95315.97
2019-06-25T12:41:12.192Z,95320.73
2019-06-25T12:43:41.717Z,95321.08
2019-06-25T12:46:11.386Z,95321.63
2019-06-25T12:48:40.904Z,95318.70
2019-06-25T12:51:14.202Z,95334.09
2019-06-25T12:53:41.609Z,95322.30
2019-06-25T12:56:11.070Z,95323.88
2019-06-25T12:58:40.578Z,95312.52
2019-06-25T13:01:10.066Z,95317.20
2019-06-25T13:03:39.540Z,95319.78
2019-06-25T13:06:09.033Z,95319.86
2019-06-25T13:08:38.573Z,95319.89
2019-06-25T13:11:08.100Z,95315.69
2019-06-25T13:13:37.589Z,95317.03
2019-06-25T13:16:07.743Z,95307.92
2019-06-25T13:18:38.671Z,95308.31
2019-06-25T13:21:12.087Z,95308.78
2019-06-25T13:23:41.610Z,95312.31
2019-06-25T13:26:11.081Z,95305.05
2019-06-25T13:28:40.530Z,95314.59
2019-06-25T13:31:10.033Z,95320.91
2019-06-25T13:33:39.633Z,95329.00
2019-06-25T13:36:09.150Z,95330.44
2019-06-25T13:38:38.925Z,95340.67
2019-06-25T13:41:08.434Z,95341.57
2019-06-25T13:43:38.018Z,95348.75
2019-06-25T13:46:07.748Z,95347.26
2019-06-25T13:48:37.493Z,95352.25
2019-06-25T13:51:07.036Z,95342.33
2019-06-25T13:53:36.506Z,95339.64
2019-06-25T13:56:06.272Z,95340.92
2019-06-25T13:58:35.946Z,95334.33
2019-06-25T14:01:05.476Z,95339.13
2019-06-25T14:03:34.959Z,95340.73
2019-06-25T14:06:04.437Z,95341.36
2019-06-25T14:08:33.923Z,95341.31
2019-06-25T14:11:03.404Z,95346.30
2019-06-25T14:13:32.968Z,95351.75
2019-06-25T14:16:02.503Z,95353.16
2019-06-25T14:18:32.046Z,95345.61
2019-06-25T14:21:01.551Z,95343.20
2019-06-25T14:23:31.064Z,95340.81
2019-06-25T14:26:10.440Z,95335.76
2019-06-25T14:28:31.844Z,95339.52
2019-06-25T14:31:01.488Z,95340.41
2019-06-25T14:33:30.982Z,95343.58
2019-06-25T14:36:00.591Z,95336.08
2019-06-25T14:38:33.204Z,95346.20
2019-06-25T14:41:02.762Z,95338.61
2019-06-25T14:43:34.080Z,95331.53
2019-06-25T14:46:03.791Z,95340.23
2019-06-25T14:48:33.400Z,95355.73
2019-06-25T14:51:02.905Z,95364.17
2019-06-25T14:53:32.351Z,95360.14
2019-06-25T14:56:01.867Z,95360.66
2019-06-25T14:58:31.363Z,95357.51
2019-06-25T15:01:01.253Z,95363.62
2019-06-25T15:03:30.847Z,95358.41
2019-06-25T15:06:00.710Z,95360.23
2019-06-25T15:08:31.834Z,95358.08
2019-06-25T15:11:01.682Z,95359.72
2019-06-25T15:13:31.282Z,95354.31
2019-06-25T15:16:00.854Z,95359.52
2019-06-25T15:18:30.393Z,95368.41
2019-06-25T15:20:59.944Z,95364.55
2019-06-25T15:23:29.516Z,95357.84
2019-06-25T15:25:59.111Z,95351.75
2019-06-25T15:28:28.997Z,95354.93
2019-06-25T15:30:58.750Z,95361.21
2019-06-25T15:33:28.942Z,95350.52
2019-06-25T15:35:59.956Z,95353.20
2019-06-25T15:38:29.527Z,95369.85
2019-06-25T15:40:59.390Z,95390.54
2019-06-25T15:43:32.280Z,95408.77
2019-06-25T15:46:00.637Z,95419.38
2019-06-25T15:48:30.694Z,95422.10
2019-06-25T15:51:00.480Z,95435.00
2019-06-25T15:53:30.111Z,95436.25
2019-06-25T15:55:59.640Z,95456.70
2019-06-25T15:58:29.154Z,95444.44
2019-06-25T16:00:58.657Z,95451.80
2019-06-25T16:03:28.239Z,95447.59
2019-06-25T16:05:57.691Z,95436.10
2019-06-25T16:08:27.233Z,95449.26
2019-06-25T16:10:56.690Z,95432.59
2019-06-25T16:13:26.214Z,95427.77
2019-06-25T16:15:55.766Z,95423.99
2019-06-25T16:18:25.400Z,95432.32
2019-06-25T16:20:54.867Z,95444.09
2019-06-25T16:23:24.542Z,95456.39
2019-06-25T16:25:54.183Z,95473.27
2019-06-25T16:28:23.656Z,95479.06
2019-06-25T16:30:53.143Z,95493.20
2019-06-25T16:33:22.617Z,95492.62
2019-06-25T16:35:52.146Z,95498.48
2019-06-25T16:38:30.563Z,95495.54
2019-06-25T16:40:52.966Z,95488.89
2019-06-25T16:43:23.463Z,95489.35
2019-06-25T16:46:00.518Z,95475.95
2019-06-25T16:48:24.465Z,95468.76
2019-06-25T16:50:53.984Z,95458.59
2019-06-25T16:53:23.653Z,95448.97
2019-06-25T16:55:53.222Z,95452.45
2019-06-25T16:58:22.671Z,95447.55
2019-06-25T17:00:52.180Z,95445.03
2019-06-25T17:03:21.659Z,95445.69
2019-06-25T17:05:51.181Z,95449.58
2019-06-25T17:08:20.922Z,95450.52
2019-06-25T17:10:53.038Z,95442.72
2019-06-25T17:13:23.165Z,95436.18
2019-06-25T17:15:53.921Z,95446.05
2019-06-25T17:20:58.000Z,95451.95
2019-06-25T17:23:31.361Z,95463.56
2019-06-25T17:26:14.817Z,95447.01
2019-06-25T17:28:45.090Z,95446.73
2019-06-25T17:31:14.783Z,95454.98
2019-06-25T17:33:44.775Z,95471.17
2019-06-25T17:36:14.388Z,95475.80
2019-06-25T17:38:51.303Z,95489.92
2019-06-25T17:41:26.203Z,95486.71
2019-06-25T17:43:58.154Z,95490.41
2019-06-25T17:46:29.709Z,95479.19
2019-06-25T17:48:59.490Z,95477.05
2019-06-25T17:51:29.778Z,95469.57
2019-06-25T17:53:59.326Z,95463.49
2019-06-25T17:56:28.971Z,95471.01
2019-06-25T17:58:58.777Z,95477.97
2019-06-25T18:01:28.454Z,95485.69
2019-06-25T18:03:58.232Z,95469.67
2019-06-25T18:06:27.794Z,95457.66
2019-06-25T18:08:57.366Z,95462.50
2019-06-25T18:11:26.915Z,95455.61
2019-06-25T18:13:56.504Z,95459.00
2019-06-25T18:16:26.097Z,95469.18
2019-06-25T18:18:55.712Z,95469.67
2019-06-25T18:21:25.306Z,95464.86
2019-06-25T18:24:02.868Z,95468.83
2019-06-25T18:26:32.551Z,95461.11
2019-06-25T18:29:02.341Z,95459.67
2019-06-25T18:31:31.934Z,95460.69
2019-06-25T18:34:01.516Z,95464.86
2019-06-25T18:36:31.075Z,95471.46
2019-06-25T18:39:00.629Z,95476.47
2019-06-25T18:41:30.196Z,95471.70
2019-06-25T18:44:00.045Z,95482.17
2019-06-25T18:46:29.649Z,95496.03
2019-06-25T18:49:00.301Z,95507.23
2019-06-25T18:51:31.773Z,95523.84
2019-06-25T18:54:11.815Z,95532.63
2019-06-25T18:57:06.779Z,95539.86
2019-06-25T18:59:36.351Z,95549.61
2019-06-25T19:02:06.086Z,95556.66
2019-06-25T19:04:35.669Z,95571.52
2019-06-25T19:07:08.744Z,95577.97
2019-06-25T19:09:36.503Z,95574.68
2019-06-25T19:12:06.073Z,95576.95
2019-06-25T19:14:37.385Z,95584.06
2019-06-25T19:17:07.021Z,95586.16
2019-06-25T19:19:40.530Z,95594.13
2019-06-25T19:22:10.265Z,95596.14
2019-06-25T19:24:43.122Z,95600.69
2019-06-25T19:27:13.045Z,95594.53
2019-06-25T19:29:42.738Z,95585.20
2019-06-25T19:32:14.309Z,95587.09
2019-06-25T19:34:44.210Z,95589.54
2019-06-25T19:37:14.077Z,95589.63
2019-06-25T19:39:43.839Z,95584.55
2019-06-25T19:42:13.624Z,95588.55
2019-06-25T19:44:43.389Z,95599.78
2019-06-25T19:47:17.143Z,95599.74
2019-06-25T19:49:47.021Z,95594.17
2019-06-25T19:52:20.076Z,95602.26
2019-06-25T19:54:49.660Z,95602.67
2019-06-25T19:57:19.834Z,95611.33
2019-06-25T19:59:49.417Z,95605.14
2019-06-25T20:02:19.353Z,95613.31
2019-06-25T20:04:48.984Z,95612.86
2019-06-25T20:07:18.582Z,95609.97
2019-06-25T20:09:48.215Z,95604.11
2019-06-25T20:12:18.228Z,95610.48
2019-06-25T20:14:50.624Z,95599.89
2019-06-25T20:17:20.547Z,95595.47
2019-06-25T20:19:50.271Z,95591.23
2019-06-25T20:22:20.032Z,95572.52
2019-06-25T20:24:49.820Z,95566.03
2019-06-25T20:27:23.463Z,95564.84
2019-06-25T20:29:55.840Z,95576.60
2019-06-25T20:32:37.530Z,95581.22
2019-06-25T20:35:04.626Z,95592.13
2019-06-25T20:37:34.258Z,95584.36
2019-06-25T20:40:03.851Z,95585.00
2019-06-25T20:42:33.527Z,95579.23
2019-06-25T20:45:03.070Z,95586.38
2019-06-25T20:47:33.256Z,95590.24
2019-06-25T20:50:02.800Z,95590.30
2019-06-25T20:52:32.296Z,95579.20
2019-06-25T20:55:01.930Z,95574.64
2019-06-25T20:57:31.483Z,95572.69
2019-06-25T21:00:00.990Z,95573.21
2019-06-25T21:02:30.512Z,95576.16
2019-06-25T21:05:00.066Z,95584.67
2019-06-25T21:07:29.508Z,95583.88
2019-06-25T21:09:59.055Z,95591.00
2019-06-25T21:12:28.587Z,95590.42
2019-06-25T21:14:58.147Z,95589.61
2019-06-25T21:17:28.733Z,95592.81
2019-06-25T21:19:58.345Z,95583.48
2019-06-25T21:22:28.158Z,95582.16
2019-06-25T21:24:57.605Z,95581.96
2019-06-25T21:27:27.071Z,95574.02
2019-06-25T21:29:56.576Z,95566.31
2019-06-25T21:32:26.188Z,95565.22
2019-06-25T21:34:55.674Z,95568.63
2019-06-25T21:37:25.550Z,95556.63
2019-06-25T21:39:55.087Z,95556.44
2019-06-25T21:42:24.582Z,95555.06
2019-06-25T21:44:54.076Z,95551.06
2019-06-25T21:47:23.557Z,95549.20
2019-06-25T21:49:53.025Z,95556.77
2019-06-25T21:52:22.505Z,95553.19
2019-06-25T21:54:52.157Z,95550.37
2019-06-25T21:57:21.695Z,95548.70
2019-06-25T21:59:51.205Z,95549.03
2019-06-25T22:02:24.377Z,95549.08
2019-06-25T22:04:53.857Z,95545.37
2019-06-25T22:07:23.390Z,95544.58
2019-06-25T22:09:52.869Z,95541.48
2019-06-25T22:12:22.414Z,95538.30
2019-06-25T22:14:51.911Z,95541.78
2019-06-25T22:17:21.373Z,95543.92
2019-06-25T22:19:50.910Z,95555.91
2019-06-25T22:22:20.730Z,95553.76
2019-06-25T22:24:50.661Z,95560.16
2019-06-25T22:27:20.157Z,95553.23
2019-06-25T22:29:49.664Z,95555.28
2019-06-25T22:32:19.150Z,95562.14
2019-06-25T22:34:48.649Z,95555.81
2019-06-25T22:37:18.142Z,95559.22
2019-06-25T22:39:47.619Z,95560.73
2019-06-25T22:42:17.190Z,95562.55
2019-06-25T22:44:46.721Z,95562.31
2019-06-25T22:47:16.193Z,95559.41
2019-06-25T22:49:45.660Z,95560.73
2019-06-25T22:52:15.141Z,95545.50
2019-06-25T22:54:44.625Z,95550.97
2019-06-25T22:57:14.099Z,95556.98
2019-06-25T22:59:43.596Z,95569.73
2019-06-25T23:02:13.167Z,95573.90
2019-06-25T23:04:42.692Z,95571.28
2019-06-25T23:07:12.174Z,95563.30
2019-06-25T23:09:41.758Z,95565.83
2019-06-25T23:12:11.258Z,95559.67
2019-06-25T23:14:40.754Z,95556.11
2019-06-25T23:17:10.270Z,95557.91
2019-06-25T23:19:41.451Z,95560.84
2019-06-25T23:22:11.117Z,95564.94
2019-06-25T23:24:40.765Z,95559.59
2019-06-25T23:27:10.198Z,95558.84
2019-06-25T23:29:39.839Z,95556.80
2019-06-25T23:32:09.346Z,95552.52
2019-06-25T23:34:38.819Z,95557.46
2019-06-25T23:37:08.339Z,95560.36
2019-06-25T23:39:37.887Z,95558.09
2019-06-25T23:42:07.453Z,95554.39
2019-06-25T23:44:36.941Z,95555.59
2019-06-25T23:47:06.411Z,95556.03
2019-06-25T23:49:35.941Z,95546.84
2019-06-25T23:52:05.513Z,95541.76
2019-06-25T23:54:34.999Z,95534.97
2019-06-25T23:57:04.490Z,95536.76
2019-06-25T23:59:34.023Z,95532.41
